Time;durP1;ratioP1;P1;durP2;ratioP2;P2;SDS_P1;SDS_P2;PMS_P1;PMS_P2;Temp;Humidity;BMP_temperature;BMP_pressure;BME280_temperature;BME280_humidity;BME280_pressure;Samples;Min_cycle;Max_cycle;Signal;HPM_P1;HPM_P2
2022/05/01 00:01:11;;;;;;;4.80;4.20;;;;;;;9.00;67.10;95202.03;5053951;28;20089;-71
2022/05/01 00:03:37;;;;;;;4.63;4.13;;;;;;;8.99;67.01;95212.50;5083688;28;20032;-72
2022/05/01 00:06:07;;;;;;;4.45;3.88;;;;;;;9.02;67.38;95209.69;5092468;28;20039;-71
2022/05/01 00:08:33;;;;;;;4.18;3.65;;;;;;;9.05;67.14;95197.31;5076174;28;20128;-72
2022/05/01 00:10:58;;;;;;;4.90;3.85;;;;;;;9.07;67.32;95205.00;5056892;28;20028;-72
2022/05/01 00:13:24;;;;;;;4.30;3.80;;;;;;;9.10;66.91;95207.38;5058818;28;20035;-72
2022/05/01 00:15:55;;;;;;;6.07;3.90;;;;;;;9.03;67.34;95201.00;5075501;28;20016;-71
2022/05/01 00:18:23;;;;;;;6.13;3.80;;;;;;;9.08;67.18;95191.94;5068858;28;20028;-72
2022/05/01 00:21:07;;;;;;;4.25;3.72;;;;;;;9.06;67.48;95188.63;5055174;28;20066;-72
2022/05/01 00:23:34;;;;;;;5.65;3.90;;;;;;;8.98;67.74;95184.94;5073592;28;20105;-72
2022/05/01 00:26:03;;;;;;;4.45;3.95;;;;;;;8.92;67.79;95176.66;5083459;28;20047;-71
2022/05/01 00:28:29;;;;;;;3.90;3.50;;;;;;;9.00;67.83;95183.03;5071933;28;20029;-71
2022/05/01 00:30:56;;;;;;;4.75;4.25;;;;;;;9.00;67.76;95191.66;5071831;28;20032;-72
2022/05/01 00:36:58;;;;;;;4.68;4.00;;;;;;;9.13;68.07;95187.25;5071669;28;20062;-72
2022/05/01 00:39:30;;;;;;;5.30;4.57;;;;;;;9.21;68.00;95178.94;5071892;28;20098;-72
2022/05/01 00:42:08;;;;;;;6.20;4.55;;;;;;;9.16;68.45;95174.09;5072718;28;20029;-72
2022/05/01 00:45:14;;;;;;;4.85;4.30;;;;;;;9.20;68.04;95172.09;5072680;28;20131;-71
2022/05/01 00:47:48;;;;;;;4.60;4.20;;;;;;;9.19;67.83;95180.78;5073172;28;20112;-72
2022/05/01 00:53:18;;;;;;;5.35;4.22;;;;;;;9.06;68.49;95175.69;5110807;28;20058;-72
2022/05/01 00:55:52;;;;;;;5.07;4.45;;;;;;;9.10;68.58;95189.25;5074958;28;20116;-72
2022/05/01 01:05:16;;;;;;;4.57;4.18;;;;;;;9.12;68.85;95177.81;5097283;28;20110;-72
2022/05/01 01:11:28;;;;;;;7.43;4.28;;;;;;;9.12;69.14;95179.59;5109434;28;20031;-72
2022/05/01 01:14:00;;;;;;;5.78;4.93;;;;;;;9.13;68.75;95178.66;5029943;28;20046;-72
2022/05/01 01:16:26;;;;;;;5.78;4.95;;;;;;;8.97;68.72;95167.72;4996802;28;20124;-71
2022/05/01 01:18:53;;;;;;;5.30;4.75;;;;;;;8.91;69.07;95162.06;5012781;28;20056;-72
2022/05/01 05:33:55;;;;;;;8.97;8.10;;;;;;;12.51;60.50;95194.91;5064023;28;20094;-71
2022/05/01 05:36:24;;;;;;;9.02;8.13;;;;;;;12.41;61.52;95194.81;5018302;28;20064;-72
2022/05/01 05:39:01;;;;;;;10.55;9.27;;;;;;;12.48;61.34;95177.75;5043763;28;20044;-71
2022/05/01 05:41:28;;;;;;;9.57;8.68;;;;;;;12.62;61.24;95201.78;5068954;28;20048;-71
2022/05/01 05:43:53;;;;;;;10.98;9.30;;;;;;;12.56;61.57;95186.66;5068696;28;20063;-71
2022/05/01 05:46:19;;;;;;;12.50;10.70;;;;;;;12.86;61.07;95196.25;5034877;28;20021;-72
2022/05/01 05:48:49;;;;;;;10.60;8.75;;;;;;;12.87;60.81;95188.31;5018274;28;20115;-72
2022/05/01 05:51:15;;;;;;;9.38;8.48;;;;;;;12.87;60.90;95196.16;5013380;28;20037;-72
2022/05/01 05:53:42;;;;;;;9.23;8.40;;;;;;;12.90;61.48;95193.28;5030035;28;20513;-71
2022/05/01 05:56:08;;;;;;;9.18;8.20;;;;;;;13.01;60.56;95197.56;5051993;28;20102;-72
2022/05/01 05:58:44;;;;;;;10.43;8.50;;;;;;;12.90;61.30;95190.66;5055452;28;20036;-71
2022/05/01 06:01:13;;;;;;;9.40;8.50;;;;;;;12.91;61.78;95199.31;5035405;28;20043;-72
2022/05/01 06:03:39;;;;;;;9.40;8.50;;;;;;;12.70;61.92;95196.75;5032393;28;20040;-71
2022/05/01 06:06:11;;;;;;;9.07;8.20;;;;;;;12.79;61.70;95197.72;5033550;28;20029;-71
2022/05/01 06:08:38;;;;;;;9.10;8.18;;;;;;;12.87;62.52;95198.75;5033230;28;20041;-70
2022/05/01 06:11:03;;;;;;;9.27;8.43;;;;;;;12.92;60.87;95193.94;5051179;28;20025;-74
2022/05/01 06:13:29;;;;;;;8.95;8.15;;;;;;;13.00;60.52;95206.34;5033244;28;20442;-72
2022/05/01 06:16:03;;;;;;;9.00;8.20;;;;;;;13.07;60.43;95209.25;5066623;28;20047;-71
2022/05/01 06:18:50;;;;;;;9.20;8.30;;;;;;;13.01;60.18;95202.78;5065279;28;20086;-72
2022/05/01 06:24:08;;;;;;;9.88;8.88;;;;;;;13.35;59.32;95192.88;4943656;28;20046;-72
2022/05/01 06:26:58;;;;;;;7.97;7.18;;;;;;;13.59;59.00;95204.69;5042351;28;20037;-71
2022/05/01 06:29:24;;;;;;;8.52;7.63;;;;;;;13.60;58.10;95203.75;4953398;28;20053;-73
2022/05/01 06:31:53;;;;;;;8.32;7.53;;;;;;;13.73;57.06;95206.91;4969954;28;20043;-73
2022/05/01 06:34:45;;;;;;;8.02;7.25;;;;;;;13.62;58.38;95205.28;5015498;28;20065;-76
2022/05/01 06:37:10;;;;;;;8.02;7.13;;;;;;;13.62;58.52;95210.50;5061610;28;20119;-70
2022/05/01 06:39:49;;;;;;;8.25;7.45;;;;;;;13.69;57.65;95216.00;5056019;28;20074;-70
2022/05/01 06:42:19;;;;;;;9.25;7.32;;;;;;;13.62;59.57;95213.09;5038215;28;20037;-70
2022/05/01 06:44:48;;;;;;;9.25;7.35;;;;;;;13.67;59.40;95211.88;5050248;28;20102;-70
2022/05/01 06:47:14;;;;;;;7.82;7.13;;;;;;;13.73;58.95;95214.75;5019351;28;20036;-70
2022/05/01 06:52:52;;;;;;;7.65;6.82;;;;;;;13.85;57.31;95211.06;4989410;28;20523;-71
2022/05/01 06:55:18;;;;;;;7.68;6.97;;;;;;;13.82;58.04;95211.34;4954217;28;20130;-71
2022/05/01 06:57:44;;;;;;;10.55;9.45;;;;;;;14.04;57.34;95205.00;4971565;28;20101;-71
2022/05/01 07:00:11;;;;;;;8.00;7.20;;;;;;;14.19;55.72;95192.31;4972584;28;20046;-71
2022/05/01 07:02:46;;;;;;;9.00;8.02;;;;;;;14.50;55.91;95199.97;4956781;28;20060;-70
2022/05/01 07:05:13;;;;;;;7.38;6.68;;;;;;;14.66;54.71;95195.00;4972542;28;20042;-71
2022/05/01 07:07:39;;;;;;;6.82;6.18;;;;;;;14.68;52.64;95203.53;4956774;28;20500;-71
2022/05/01 07:10:09;;;;;;;5.95;5.18;;;;;;;14.72;52.28;95194.44;4988808;28;20117;-71
2022/05/01 07:12:35;;;;;;;6.50;5.70;;;;;;;14.85;51.92;95201.13;4989001;28;20065;-71
2022/05/01 07:15:10;;;;;;;5.40;4.75;;;;;;;14.80;51.31;95201.56;4989541;28;20045;-71
2022/05/01 07:18:03;;;;;;;5.75;5.15;;;;;;;14.76;50.85;95200.19;4944333;28;20509;-71
2022/05/01 07:21:00;;;;;;;5.70;5.20;;;;;;;14.98;50.86;95193.78;4976378;28;20046;-71
2022/05/01 07:26:50;;;;;;;5.38;4.88;;;;;;;15.07;49.57;95192.91;5074633;28;20054;-71
2022/05/01 07:29:56;;;;;;;5.50;5.00;;;;;;;15.12;48.92;95195.91;5074276;28;20082;-71
2022/05/01 07:36:31;;;;;;;5.85;5.15;;;;;;;15.13;50.23;95186.28;4920045;29;20068;-71
2022/05/01 07:38:59;;;;;;;5.40;4.90;;;;;;;15.37;47.61;95191.75;4915267;29;20110;-73
2022/05/01 07:41:46;;;;;;;5.45;4.95;;;;;;;15.35;48.60;95185.88;4895721;29;20416;-71
2022/05/01 07:51:46;;;;;;;4.63;4.22;;;;;;;15.61;45.76;95195.63;4896136;29;20100;-72
2022/05/01 07:54:20;;;;;;;4.72;4.30;;;;;;;15.48;46.05;95180.25;4896138;29;20066;-69
2022/05/01 07:56:45;;;;;;;4.68;4.28;;;;;;;15.58;46.18;95186.28;4895988;29;20176;-75
2022/05/01 07:59:11;;;;;;;4.68;4.13;;;;;;;15.24;46.02;95177.38;4880304;29;20120;-73
2022/05/01 08:04:35;;;;;;;5.15;4.22;;;;;;;15.30;47.25;95182.88;4882189;29;20060;-71
2022/05/01 08:07:02;;;;;;;4.72;4.20;;;;;;;15.21;46.03;95173.28;4884953;29;20049;-70
2022/05/01 08:09:28;;;;;;;5.18;4.68;;;;;;;15.24;46.58;95177.38;4951436;28;20051;-71
2022/05/01 08:11:53;;;;;;;4.40;4.00;;;;;;;15.29;45.33;95180.38;4965952;28;20061;-70
2022/05/01 08:14:24;;;;;;;4.25;3.85;;;;;;;15.17;46.13;95177.97;4971985;28;20034;-70
2022/05/01 08:17:28;;;;;;;4.82;4.40;;;;;;;15.24;47.17;95169.53;4974810;28;20034;-72
2022/05/01 08:30:07;;;;;;;4.60;4.10;;;;;;;15.72;43.77;95153.53;4989939;28;20049;-70
2022/05/01 08:32:32;;;;;;;5.15;4.10;;;;;;;15.88;45.84;95155.47;4955541;28;20100;-70
2022/05/01 08:35:00;;;;;;;4.28;3.88;;;;;;;15.98;43.60;95147.53;4995282;28;20058;-70
2022/05/01 08:37:28;;;;;;;4.28;3.88;;;;;;;15.99;43.72;95152.63;4993052;28;20041;-70
2022/05/01 08:39:57;;;;;;;4.30;3.90;;;;;;;16.08;45.32;95145.63;5010514;28;20487;-70
2022/05/01 08:42:23;;;;;;;8.25;4.03;;;;;;;16.13;42.82;95142.53;5025289;28;20076;-70
2022/05/01 08:44:48;;;;;;;4.93;3.58;;;;;;;16.21;42.77;95142.59;5017662;28;20040;-70
2022/05/01 08:47:27;;;;;;;4.28;3.45;;;;;;;16.45;44.92;95148.00;5017894;28;20033;-71
2022/05/01 08:49:56;;;;;;;3.47;3.17;;;;;;;16.50;42.31;95139.69;5019762;28;20581;-72
2022/05/01 08:52:43;;;;;;;4.35;2.95;;;;;;;16.45;40.58;95113.91;4985072;28;20052;-72
2022/05/01 08:55:18;;;;;;;3.45;2.92;;;;;;;16.69;38.89;95136.03;5052790;28;20070;-72
2022/05/01 09:00:49;;;;;;;3.05;2.42;;;;;;;16.77;37.79;95133.47;5028389;28;20517;-70
2022/05/01 09:03:25;;;;;;;3.63;2.75;;;;;;;16.92;38.43;95126.63;5034361;28;20041;-71
2022/05/01 09:05:52;;;;;;;4.50;2.47;;;;;;;17.13;38.03;95120.13;5052225;28;20043;-70
2022/05/01 09:08:17;;;;;;;2.95;2.40;;;;;;;17.23;37.00;95115.56;5052987;28;20518;-70
2022/05/01 09:10:50;;;;;;;3.40;2.40;;;;;;;17.13;36.99;95112.25;5034728;28;20029;-71
2022/05/01 09:16:11;;;;;;;5.13;2.00;;;;;;;17.27;34.48;95121.31;4989892;28;20046;-70
2022/05/01 09:18:49;;;;;;;2.80;1.90;;;;;;;17.08;33.15;95114.56;4989359;28;20038;-70
2022/05/01 09:21:15;;;;;;;2.88;2.13;;;;;;;17.09;36.08;95116.19;4974676;28;20158;-70
2022/05/01 09:23:44;;;;;;;3.78;2.50;;;;;;;17.15;36.92;95107.66;4989548;28;20030;-70
2022/05/01 09:26:12;;;;;;;5.07;2.22;;;;;;;17.12;35.02;95108.00;4973972;28;20538;-70
2022/05/01 09:28:47;;;;;;;2.38;1.90;;;;;;;16.82;36.04;95107.56;4973259;28;20031;-70
2022/05/01 09:34:29;;;;;;;2.60;2.20;;;;;;;16.86;36.62;95100.22;4989411;28;20082;-70
2022/05/01 09:40:07;;;;;;;;;;;;;;;17.08;33.69;95086.50;4958809;28;20109;-71
2022/05/01 09:42:42;;;;;;;2.88;2.03;;;;;;;17.00;35.32;95078.59;5025167;28;19924;-70
2022/05/01 09:45:17;;;;;;;2.20;1.80;;;;;;;17.08;34.44;95080.44;4984745;28;20130;-69
2022/05/01 09:50:48;;;;;;;2.72;2.05;;;;;;;17.17;33.67;95069.78;4941095;28;20061;-70
2022/05/01 09:53:40;;;;;;;2.85;1.80;;;;;;;17.11;33.16;95069.63;4969536;28;20117;-69
2022/05/01 09:56:05;;;;;;;2.55;1.80;;;;;;;17.15;32.70;95060.44;4970164;28;20070;-69
2022/05/01 09:58:33;;;;;;;2.58;1.80;;;;;;;17.10;33.93;95057.47;4969751;28;20089;-69
2022/05/01 10:01:09;;;;;;;2.97;1.90;;;;;;;16.94;35.17;95063.50;4953717;28;20134;-69
2022/05/01 10:03:47;;;;;;;2.65;1.80;;;;;;;17.02;36.48;95066.16;4976660;28;20559;-70
2022/05/01 10:06:14;;;;;;;3.47;2.00;;;;;;;17.16;34.49;95047.16;4956958;28;20483;-69
2022/05/01 10:08:41;;;;;;;2.33;1.80;;;;;;;17.33;33.18;95053.25;4972116;28;20030;-69
2022/05/01 10:11:07;;;;;;;2.67;1.90;;;;;;;17.43;35.18;95058.31;4952399;28;20042;-69
2022/05/01 10:13:34;;;;;;;2.72;1.92;;;;;;;17.53;34.98;95047.69;4951711;28;20097;-69
2022/05/01 10:16:00;;;;;;;2.20;2.00;;;;;;;17.71;35.23;95045.69;4951797;28;20513;-70
2022/05/01 10:18:25;;;;;;;3.08;1.90;;;;;;;17.85;35.02;95031.91;4969474;28;20556;-71
2022/05/01 10:20:54;;;;;;;2.40;1.77;;;;;;;17.95;33.34;95036.19;4969253;28;20133;-69
2022/05/01 10:23:21;;;;;;;2.38;1.80;;;;;;;18.08;32.60;95031.25;4952786;28;20038;-70
2022/05/01 10:26:34;;;;;;;3.05;2.08;;;;;;;18.25;32.11;95027.56;4969389;28;20492;-69
2022/05/01 10:29:21;;;;;;;9.20;5.38;;;;;;;18.24;33.32;95033.78;4969672;28;20041;-69
2022/05/01 10:32:28;;;;;;;3.65;2.00;;;;;;;18.14;32.06;95019.22;5050428;28;20032;-69
2022/05/01 10:35:30;;;;;;;4.70;1.73;;;;;;;18.23;32.39;95021.66;5037686;28;20114;-69
2022/05/01 10:37:59;;;;;;;4.70;2.03;;;;;;;18.23;32.13;95023.47;5038158;28;20123;-69
2022/05/01 10:41:15;;;;;;;2.90;1.92;;;;;;;18.18;34.30;95012.63;5060100;28;20087;-69
2022/05/01 10:44:18;;;;;;;3.03;1.90;;;;;;;18.11;34.32;95001.97;5069854;28;20115;-69
2022/05/01 10:47:18;;;;;;;3.42;2.00;;;;;;;18.33;34.50;94999.59;5036932;28;20539;-69
2022/05/01 10:49:44;;;;;;;4.30;1.95;;;;;;;18.39;31.82;95006.81;5026457;28;20091;-69
2022/05/01 10:52:17;;;;;;;2.65;2.28;;;;;;;18.27;32.66;94996.66;5035825;28;20535;-69
2022/05/01 10:55:14;;;;;;;3.20;2.00;;;;;;;18.33;33.37;94994.34;5068978;28;20041;-69
2022/05/01 10:58:06;;;;;;;4.70;1.80;;;;;;;18.24;33.23;94993.53;5015406;28;20045;-69
2022/05/01 11:00:31;;;;;;;4.10;2.35;;;;;;;18.29;33.55;94989.41;5004834;28;20179;-70
2022/05/01 11:02:58;;;;;;;3.17;2.00;;;;;;;18.26;31.45;94992.38;4994047;28;20117;-69
2022/05/01 11:05:43;;;;;;;3.60;2.78;;;;;;;18.34;32.43;94999.44;4995541;28;20072;-69
2022/05/01 11:08:23;;;;;;;2.75;2.10;;;;;;;18.31;32.83;94991.91;4995515;28;20161;-69
2022/05/01 11:11:12;;;;;;;;;;;;;;;18.26;32.82;94989.75;5028409;28;20056;-69
2022/05/01 11:14:07;;;;;;;2.47;2.20;;;;;;;18.11;32.83;94977.47;5028111;28;19999;-69
2022/05/01 11:16:52;;;;;;;2.80;2.33;;;;;;;18.12;33.83;94982.59;5012433;28;20037;-70
2022/05/01 11:19:23;;;;;;;3.47;2.30;;;;;;;18.20;33.73;94972.03;5011723;28;20055;-70
2022/05/01 11:21:49;;;;;;;2.38;2.17;;;;;;;18.18;32.02;94973.19;5011371;28;20136;-69
2022/05/01 11:24:15;;;;;;;3.67;2.15;;;;;;;18.08;33.38;94973.41;5011522;28;20430;-69
2022/05/01 11:27:16;;;;;;;2.10;1.77;;;;;;;18.17;31.17;94975.00;4995211;28;20041;-69
2022/05/01 11:30:00;;;;;;;;;;;;;;;18.05;32.15;94965.84;4999921;28;20628;-69
2022/05/01 11:32:27;;;;;;;2.22;2.00;;;;;;;17.98;32.60;94954.38;5067878;28;20014;-70
2022/05/01 11:34:54;;;;;;;3.10;2.50;;;;;;;18.09;32.75;94964.53;5034334;28;20052;-70
2022/05/01 11:37:41;;;;;;;2.78;2.30;;;;;;;18.21;32.78;94960.53;5034740;28;20028;-69
2022/05/01 11:43:20;;;;;;;2.35;1.98;;;;;;;18.30;31.87;94956.06;5013824;28;20523;-69
2022/05/01 11:45:47;;;;;;;2.70;1.88;;;;;;;17.98;32.60;94951.75;5033625;28;20072;-69
2022/05/01 11:48:24;;;;;;;3.40;2.10;;;;;;;17.79;33.38;94935.38;5067833;28;20036;-69
2022/05/01 11:50:53;;;;;;;3.63;2.20;;;;;;;17.98;34.09;94957.81;5052420;28;20064;-70
2022/05/01 11:53:28;;;;;;;3.10;2.40;;;;;;;17.96;33.75;94953.72;5050999;28;20060;-71
2022/05/01 12:04:36;;;;;;;2.30;2.10;;;;;;;17.64;34.24;94950.16;5017422;28;20033;-69
2022/05/01 12:07:21;;;;;;;2.60;2.33;;;;;;;17.69;34.23;94942.59;4998241;28;20042;-70
2022/05/01 12:09:48;;;;;;;3.45;2.50;;;;;;;17.83;33.22;94941.13;5031157;28;20103;-70
2022/05/01 12:12:17;;;;;;;3.92;2.42;;;;;;;17.82;33.06;94937.66;5014503;28;20048;-70
2022/05/01 12:14:46;;;;;;;2.72;2.20;;;;;;;17.64;34.06;94931.78;5014747;28;20073;-69
2022/05/01 12:17:29;;;;;;;4.07;2.50;;;;;;;17.58;34.48;94920.13;5030283;28;20546;-69
2022/05/01 12:20:24;;;;;;;3.67;2.13;;;;;;;17.63;34.64;94933.59;5014793;28;20033;-70
2022/05/01 12:23:00;;;;;;;2.75;2.03;;;;;;;17.55;35.12;94917.84;5018241;28;20037;-69
2022/05/01 12:25:35;;;;;;;3.10;2.28;;;;;;;17.69;33.59;94924.22;5000243;28;20044;-70
2022/05/01 12:28:20;;;;;;;2.78;2.20;;;;;;;17.59;34.08;94924.38;5030715;28;20044;-70
2022/05/01 12:30:51;;;;;;;2.65;2.38;;;;;;;17.51;33.98;94923.59;5014175;28;20036;-70
2022/05/01 12:33:41;;;;;;;4.32;2.25;;;;;;;17.46;34.14;94915.38;5052046;28;20079;-70
2022/05/01 12:37:04;;;;;;;5.57;2.40;;;;;;;17.32;35.03;94915.06;4992653;28;20575;-69
2022/05/01 12:39:36;;;;;;;3.70;2.60;;;;;;;17.16;34.68;94905.41;4990924;28;20309;-69
2022/05/01 12:45:56;;;;;;;3.67;2.30;;;;;;;17.12;36.25;94903.28;4990979;28;20108;-69
2022/05/01 12:49:26;;;;;;;2.75;2.17;;;;;;;16.96;35.74;94902.28;4951789;28;20106;-69
2022/05/01 12:55:31;;;;;;;;;;;;;;;16.81;35.21;94903.13;4952643;28;20050;-69
2022/05/01 12:58:01;;;;;;;6.20;2.28;;;;;;;16.72;35.29;94897.03;4952188;29;19918;-69
2022/05/01 13:00:34;;;;;;;4.70;2.27;;;;;;;16.62;35.37;94884.03;4936122;29;20047;-69
2022/05/01 13:03:27;;;;;;;3.83;2.65;;;;;;;16.59;35.84;94891.41;4920628;29;20548;-69
2022/05/01 13:06:40;;;;;;;2.97;2.40;;;;;;;16.72;35.72;94891.78;4951909;28;20134;-69
2022/05/01 13:09:06;;;;;;;2.83;2.10;;;;;;;16.76;35.10;94887.81;4879282;29;20488;-69
2022/05/01 13:11:33;;;;;;;4.05;2.55;;;;;;;16.85;35.68;94888.69;4974324;28;20046;-69
2022/05/01 13:14:32;;;;;;;3.38;2.30;;;;;;;16.81;35.41;94879.50;4958015;28;20053;-69
2022/05/01 13:17:31;;;;;;;7.30;2.45;;;;;;;16.84;36.01;94880.00;4982510;28;20041;-70
2022/05/01 13:19:57;;;;;;;2.65;2.17;;;;;;;16.97;36.13;94875.06;5015334;28;20060;-70
2022/05/01 13:22:27;;;;;;;2.85;2.13;;;;;;;17.01;34.47;94875.56;5014677;28;20025;-70
2022/05/01 13:24:53;;;;;;;3.95;2.20;;;;;;;16.96;34.73;94877.84;5032656;28;20044;-71
2022/05/01 13:27:22;;;;;;;2.75;2.22;;;;;;;16.94;34.96;94872.78;5050884;28;20464;-70
2022/05/01 13:29:52;;;;;;;3.72;2.42;;;;;;;16.98;35.37;94876.72;5033944;28;20044;-71
2022/05/01 13:32:21;;;;;;;4.40;2.30;;;;;;;17.04;35.63;94871.78;5051944;28;20421;-71
2022/05/01 13:34:46;;;;;;;4.00;2.50;;;;;;;16.92;36.20;94877.38;5051835;28;20037;-71
2022/05/01 13:37:24;;;;;;;5.05;2.47;;;;;;;16.84;35.91;94876.56;5067907;28;20051;-71
2022/05/01 13:46:32;;;;;;;2.72;2.40;;;;;;;16.88;35.27;94860.34;5071836;28;20031;-71
2022/05/01 13:49:08;;;;;;;3.03;2.15;;;;;;;16.98;34.74;94860.97;5071525;28;20032;-72
2022/05/01 13:51:36;;;;;;;2.90;2.35;;;;;;;16.95;33.23;94858.66;5035823;28;20123;-71
2022/05/01 13:54:12;;;;;;;3.08;2.20;;;;;;;16.94;33.85;94867.53;5069084;28;20051;-72
2022/05/01 14:00:49;;;;;;;4.20;2.40;;;;;;;16.93;35.59;94868.50;5072043;28;20083;-71
2022/05/01 14:04:04;;;;;;;2.60;2.10;;;;;;;16.86;34.88;94861.47;5069981;28;20421;-73
2022/05/01 14:06:38;;;;;;;3.80;2.75;;;;;;;16.81;34.94;94861.16;5048766;28;20082;-73
2022/05/01 14:09:25;;;;;;;5.18;2.40;;;;;;;16.90;34.65;94862.78;5015108;28;20124;-73
2022/05/01 14:15:48;;;;;;;3.45;2.20;;;;;;;17.11;35.31;94864.91;5048768;28;20052;-71
2022/05/01 14:18:41;;;;;;;2.60;2.35;;;;;;;17.02;34.89;94856.22;5048564;28;20033;-72
2022/05/01 14:24:53;;;;;;;3.38;2.40;;;;;;;17.11;35.51;94854.41;5048217;28;20060;-72
2022/05/01 14:27:22;;;;;;;4.05;3.05;;;;;;;17.27;34.50;94854.34;5048670;28;20072;-72
2022/05/01 14:29:59;;;;;;;2.75;2.33;;;;;;;17.28;34.49;94857.81;5037976;28;20060;-74
2022/05/01 14:36:38;;;;;;;2.85;2.40;;;;;;;17.12;33.09;94854.22;5045195;28;20108;-73
2022/05/01 14:39:13;;;;;;;2.75;2.00;;;;;;;16.92;34.37;94838.00;5070189;28;20110;-73
2022/05/01 14:55:44;;;;;;;3.53;2.35;;;;;;;16.74;34.67;94839.94;5067696;28;20083;-71
2022/05/01 15:06:25;;;;;;;4.22;2.30;;;;;;;16.85;35.88;94839.66;5032221;28;20144;-71
2022/05/01 15:09:14;;;;;;;3.95;2.10;;;;;;;16.96;33.53;94844.56;5034555;28;20086;-71
2022/05/01 15:11:41;;;;;;;2.78;2.30;;;;;;;16.84;34.26;94817.03;5067832;28;20493;-72
2022/05/01 15:14:06;;;;;;;3.10;2.40;;;;;;;16.98;35.33;94833.91;5051171;28;20028;-72
2022/05/01 15:26:37;;;;;;;2.75;2.10;;;;;;;16.97;33.30;94830.47;5069271;28;20169;-71
2022/05/01 15:32:31;;;;;;;2.80;2.20;;;;;;;16.96;36.42;94822.75;5024223;28;20101;-70
2022/05/01 15:35:00;;;;;;;4.72;2.08;;;;;;;17.00;36.14;94823.25;5004302;28;20146;-71
2022/05/01 15:37:38;;;;;;;2.40;1.92;;;;;;;16.93;34.27;94829.16;5006211;28;20053;-71
2022/05/01 15:40:05;;;;;;;4.55;1.95;;;;;;;16.96;34.36;94833.25;5032587;28;20040;-70
2022/05/01 15:42:37;;;;;;;2.50;1.77;;;;;;;17.04;33.29;94837.69;5053360;28;20434;-71
2022/05/01 15:45:11;;;;;;;3.05;2.03;;;;;;;16.85;33.44;94823.91;5018260;28;20478;-70
2022/05/01 15:47:42;;;;;;;2.45;1.90;;;;;;;16.85;33.96;94823.91;5035097;28;20127;-70
2022/05/01 15:55:49;;;;;;;3.03;1.80;;;;;;;16.77;34.18;94823.94;5037285;28;20048;-71
2022/05/01 15:58:14;;;;;;;3.15;1.90;;;;;;;16.73;35.73;94815.53;5016623;28;20025;-70
2022/05/01 16:00:41;;;;;;;2.60;1.90;;;;;;;16.77;34.31;94823.94;5032926;28;20414;-71
2022/05/01 16:03:07;;;;;;;2.80;2.00;;;;;;;16.73;34.52;94812.91;5017573;28;20402;-70
2022/05/01 16:05:33;;;;;;;3.53;2.00;;;;;;;16.72;35.06;94829.63;5052744;28;20025;-70
2022/05/01 16:08:19;;;;;;;3.05;1.73;;;;;;;16.64;34.15;94827.00;5017050;28;20453;-70
2022/05/01 16:11:17;;;;;;;2.65;1.90;;;;;;;16.49;34.36;94829.47;5029131;28;20174;-70
2022/05/01 16:13:55;;;;;;;4.00;2.00;;;;;;;16.49;34.87;94826.84;5051740;28;20039;-70
2022/05/01 16:16:33;;;;;;;2.95;1.90;;;;;;;16.49;33.57;94832.09;5051654;28;20036;-70
2022/05/01 16:19:04;;;;;;;3.15;2.10;;;;;;;16.33;34.51;94818.97;5016760;28;20037;-70
2022/05/01 16:21:35;;;;;;;4.45;2.00;;;;;;;16.34;35.09;94833.69;5050438;28;20032;-70
2022/05/01 16:24:10;;;;;;;3.80;1.88;;;;;;;16.24;33.78;94830.41;5018644;28;20116;-70
2022/05/01 16:26:38;;;;;;;3.10;1.85;;;;;;;16.08;33.97;94832.03;5049698;28;20036;-70
2022/05/01 16:29:25;;;;;;;3.85;1.80;;;;;;;16.11;34.04;94824.81;5050607;28;20119;-70
2022/05/01 16:32:10;;;;;;;13.25;7.18;;;;;;;16.01;34.85;94832.81;5033628;28;20495;-70
2022/05/01 16:35:03;;;;;;;4.20;2.42;;;;;;;16.05;34.97;94839.38;5051281;28;20045;-70
2022/05/01 16:37:32;;;;;;;4.05;2.50;;;;;;;16.12;34.00;94836.94;5054514;28;20051;-70
2022/05/01 16:39:58;;;;;;;21.40;9.95;;;;;;;15.94;34.84;94835.25;5053131;28;20036;-70
2022/05/01 16:42:24;;;;;;;21.33;10.43;;;;;;;15.92;36.13;94837.22;5070012;28;20677;-70
2022/05/01 16:44:49;;;;;;;31.02;18.45;;;;;;;15.89;36.17;94837.53;5053637;28;20462;-69
2022/05/01 17:00:42;;;;;;;7.35;4.20;;;;;;;15.58;36.62;94834.59;5073312;28;20172;-71
2022/05/01 17:03:21;;;;;;;7.53;2.90;;;;;;;15.46;35.37;94835.84;5037955;28;20038;-71
2022/05/01 17:06:18;;;;;;;8.05;4.63;;;;;;;15.44;35.64;94837.81;5037752;28;20051;-70
2022/05/01 17:08:59;;;;;;;17.58;7.90;;;;;;;15.45;35.73;94840.25;5072059;28;20029;-71
2022/05/01 17:11:33;;;;;;;;;;;;;;;15.37;36.09;94845.44;5055027;28;20554;-71
2022/05/01 17:14:11;;;;;;;24.65;13.13;;;;;;;15.32;38.92;94842.47;5072141;28;19925;-72
2022/05/01 17:16:55;;;;;;;5.55;3.22;;;;;;;15.15;38.21;94847.59;5054446;28;20577;-71
2022/05/01 17:19:27;;;;;;;3.42;2.35;;;;;;;15.13;38.05;94849.59;5054203;28;20165;-71
2022/05/01 17:22:02;;;;;;;4.55;1.88;;;;;;;15.06;37.95;94845.94;5055167;28;20021;-71
2022/05/01 17:24:49;;;;;;;2.90;2.08;;;;;;;15.00;39.94;94859.63;5037583;28;20032;-71
2022/05/01 17:27:15;;;;;;;3.83;1.80;;;;;;;14.98;39.95;94854.53;5072211;28;20025;-71
2022/05/01 17:30:06;;;;;;;2.40;2.00;;;;;;;14.89;38.67;94854.63;5037551;28;20094;-70
2022/05/01 17:32:58;;;;;;;2.97;1.95;;;;;;;14.87;40.03;94867.84;5039629;28;20111;-72
2022/05/01 17:35:25;;;;;;;3.33;1.90;;;;;;;14.82;41.67;94861.44;5049747;28;20559;-71
2022/05/01 17:37:51;;;;;;;2.83;1.67;;;;;;;14.65;39.57;94873.56;5065173;28;20489;-71
2022/05/01 17:40:19;;;;;;;10.35;1.95;;;;;;;14.64;39.62;94879.78;5070732;28;20039;-71
2022/05/01 17:42:46;;;;;;;3.55;1.75;;;;;;;14.62;40.30;94877.28;5070367;28;20111;-71
2022/05/01 17:45:11;;;;;;;2.40;1.98;;;;;;;14.59;41.50;94876.78;5070581;28;20029;-71
2022/05/01 17:47:40;;;;;;;3.33;1.73;;;;;;;14.51;40.92;94873.09;5070486;28;20035;-71
2022/05/01 17:50:06;;;;;;;2.72;1.80;;;;;;;14.53;44.31;94881.63;5066473;28;20029;-70
2022/05/01 17:52:35;;;;;;;3.50;1.73;;;;;;;14.47;45.51;94881.38;5053799;28;20032;-71
2022/05/01 17:55:04;;;;;;;4.85;1.83;;;;;;;14.38;45.47;94882.28;5037777;28;20448;-71
2022/05/01 17:57:29;;;;;;;3.47;1.88;;;;;;;14.34;45.57;94886.16;5053832;28;20114;-70
2022/05/01 17:59:54;;;;;;;3.20;2.00;;;;;;;14.19;43.75;94889.28;5071348;28;20489;-71
2022/05/01 18:02:57;;;;;;;3.75;2.05;;;;;;;14.17;43.32;94883.38;5071446;28;20036;-71
2022/05/01 18:11:55;;;;;;;3.05;2.13;;;;;;;14.18;43.51;94905.94;5071592;28;20071;-71
2022/05/01 18:14:39;;;;;;;4.63;2.20;;;;;;;14.07;40.93;94900.91;5071124;28;20111;-71
2022/05/01 18:17:21;;;;;;;3.22;1.95;;;;;;;14.13;42.34;94905.53;5071166;28;20082;-71
2022/05/01 18:20:07;;;;;;;4.35;2.70;;;;;;;14.07;41.60;94916.56;5054821;28;20398;-71
2022/05/01 18:23:05;;;;;;;3.72;2.33;;;;;;;14.07;43.01;94908.75;5053604;28;20029;-71
2022/05/01 18:25:52;;;;;;;3.92;2.70;;;;;;;14.03;41.36;94913.41;5044080;28;20045;-71
2022/05/01 18:28:20;;;;;;;4.55;2.70;;;;;;;14.09;42.21;94914.63;5071097;28;20025;-72
2022/05/01 18:31:01;;;;;;;4.00;2.60;;;;;;;14.08;42.32;94907.75;5071138;28;20037;-72
2022/05/01 18:33:32;;;;;;;4.53;3.00;;;;;;;14.03;41.97;94905.56;5053181;28;20521;-72
2022/05/01 18:36:00;;;;;;;3.25;2.42;;;;;;;14.00;42.27;94912.88;5036356;28;20063;-72
2022/05/01 18:38:34;;;;;;;3.65;2.53;;;;;;;14.03;42.04;94905.56;5070839;28;20599;-72
2022/05/01 18:41:02;;;;;;;3.80;2.80;;;;;;;14.01;41.74;94906.69;5052559;28;20414;-72
2022/05/01 18:43:29;;;;;;;3.53;2.85;;;;;;;14.12;41.47;94909.09;5037106;28;20044;-71
2022/05/01 18:45:55;;;;;;;4.10;2.60;;;;;;;14.15;41.75;94911.44;5052964;28;20025;-71
2022/05/01 18:48:26;;;;;;;4.47;2.80;;;;;;;14.05;43.03;94913.28;5036212;28;20119;-71
2022/05/01 18:50:57;;;;;;;4.20;2.30;;;;;;;14.05;42.34;94921.94;5052938;28;20025;-72
2022/05/01 18:53:25;;;;;;;4.45;2.60;;;;;;;14.02;43.12;94919.63;5037486;28;20094;-71
2022/05/01 18:55:50;;;;;;;4.03;2.85;;;;;;;13.99;42.54;94922.53;5052737;28;20028;-72
2022/05/01 18:58:16;;;;;;;4.82;2.80;;;;;;;13.97;42.96;94919.22;5052763;28;20530;-71
2022/05/01 19:00:41;;;;;;;2.65;2.20;;;;;;;13.96;43.21;94919.38;5036116;28;20082;-71
2022/05/01 19:03:07;;;;;;;3.15;2.42;;;;;;;13.99;43.06;94922.53;5052833;28;20032;-72
2022/05/01 19:05:51;;;;;;;4.00;2.38;;;;;;;14.03;42.57;94916.03;5070690;28;20079;-71
2022/05/01 19:08:35;;;;;;;4.13;2.20;;;;;;;14.04;42.94;94924.69;5054063;28;20123;-72
2022/05/01 19:11:03;;;;;;;3.45;2.40;;;;;;;14.01;42.79;94932.81;5071120;28;20415;-72